sensor_id;sensor_type;location;lat;lon;timestamp;pressure;altitude;pressure_sealevel;temperature;humidity
78488;BME280;67885;49.758;9.582;2023-05-02T00:00:50;99219.06;;;15.33;47.52
78488;BME280;67885;49.758;9.582;2023-05-02T00:03:17;99218.38;;;15.31;46.75
78488;BME280;67885;49.758;9.582;2023-05-02T00:05:44;99215.31;;;15.26;47.09
78488;BME280;67885;49.758;9.582;2023-05-02T00:08:10;99213.13;;;15.21;47.68
78488;BME280;67885;49.758;9.582;2023-05-02T00:10:37;99177.50;;;14.94;47.53
78488;BME280;67885;49.758;9.582;2023-05-02T00:13:04;99202.69;;;15.10;47.29
78488;BME280;67885;49.758;9.582;2023-05-02T00:15:32;99080.31;;;14.25;47.56
78488;BME280;67885;49.758;9.582;2023-05-02T00:17:58;99216.78;;;15.02;47.95
78488;BME280;67885;49.758;9.582;2023-05-02T00:20:25;99209.19;;;14.97;47.92
78488;BME280;67885;49.758;9.582;2023-05-02T00:22:52;99208.53;;;14.95;48.32
78488;BME280;67885;49.758;9.582;2023-05-02T00:25:18;99207.00;;;14.93;47.73
78488;BME280;67885;49.758;9.582;2023-05-02T00:27:45;99139.94;;;14.42;47.92
78488;BME280;67885;49.758;9.582;2023-05-02T00:30:13;99211.44;;;14.84;48.86
78488;BME280;67885;49.758;9.582;2023-05-02T00:32:41;99218.41;;;14.85;48.75
78488;BME280;67885;49.758;9.582;2023-05-02T00:35:08;99212.84;;;14.78;48.94
78488;BME280;67885;49.758;9.582;2023-05-02T00:37:35;99218.72;;;14.82;48.83
78488;BME280;67885;49.758;9.582;2023-05-02T00:40:02;99223.38;;;14.80;48.77
78488;BME280;67885;49.758;9.582;2023-05-02T00:42:29;99219.84;;;14.79;49.44
78488;BME280;67885;49.758;9.582;2023-05-02T00:45:00;99221.97;;;14.76;48.79
78488;BME280;67885;49.758;9.582;2023-05-02T00:47:27;99197.66;;;14.51;49.15
78488;BME280;67885;49.758;9.582;2023-05-02T00:49:55;99217.13;;;14.61;49.56
78488;BME280;67885;49.758;9.582;2023-05-02T00:52:22;99202.41;;;14.57;49.15
78488;BME280;67885;49.758;9.582;2023-05-02T00:54:48;99219.69;;;14.63;49.19
78488;BME280;67885;49.758;9.582;2023-05-02T00:57:15;99216.16;;;14.62;48.79
78488;BME280;67885;49.758;9.582;2023-05-02T00:59:42;99163.16;;;14.31;49.30
78488;BME280;67885;49.758;9.582;2023-05-02T01:02:21;99196.03;;;14.40;49.74
78488;BME280;67885;49.758;9.582;2023-05-02T01:05:01;99216.69;;;14.66;49.01
78488;BME280;67885;49.758;9.582;2023-05-02T01:07:48;99171.53;;;14.37;50.49
78488;BME280;67885;49.758;9.582;2023-05-02T01:10:26;99219.78;;;14.61;49.52
78488;BME280;67885;49.758;9.582;2023-05-02T01:13:02;99223.75;;;14.57;49.44
78488;BME280;67885;49.758;9.582;2023-05-02T01:15:32;99224.25;;;14.61;49.31
78488;BME280;67885;49.758;9.582;2023-05-02T01:18:02;99223.44;;;14.60;49.30
78488;BME280;67885;49.758;9.582;2023-05-02T01:20:37;99222.47;;;14.61;49.38
78488;BME280;67885;49.758;9.582;2023-05-02T01:23:19;99206.38;;;14.53;49.86
78488;BME280;67885;49.758;9.582;2023-05-02T01:25:59;99225.13;;;14.61;49.52
78488;BME280;67885;49.758;9.582;2023-05-02T01:28:46;99232.13;;;14.62;49.64
78488;BME280;67885;49.758;9.582;2023-05-02T01:31:17;99227.53;;;14.55;49.78
78488;BME280;67885;49.758;9.582;2023-05-02T01:33:45;99249.53;;;14.57;49.50
78488;BME280;67885;49.758;9.582;2023-05-02T01:36:15;99237.66;;;14.51;50.24
78488;BME280;67885;49.758;9.582;2023-05-02T01:38:43;99236.81;;;14.50;50.49
78488;BME280;67885;49.758;9.582;2023-05-02T01:41:12;99240.03;;;14.54;50.58
78488;BME280;67885;49.758;9.582;2023-05-02T01:43:41;99240.41;;;14.59;49.63
78488;BME280;67885;49.758;9.582;2023-05-02T01:46:10;99251.06;;;14.59;49.58
78488;BME280;67885;49.758;9.582;2023-05-02T01:48:43;99244.97;;;14.49;49.98
78488;BME280;67885;49.758;9.582;2023-05-02T01:51:14;99255.03;;;14.55;50.90
78488;BME280;67885;49.758;9.582;2023-05-02T01:53:45;99252.66;;;14.52;50.01
78488;BME280;67885;49.758;9.582;2023-05-02T01:56:18;99259.94;;;14.50;51.23
78488;BME280;67885;49.758;9.582;2023-05-02T01:58:47;99250.03;;;14.42;50.58
78488;BME280;67885;49.758;9.582;2023-05-02T02:01:17;99267.22;;;14.58;50.56
78488;BME280;67885;49.758;9.582;2023-05-02T02:03:46;99267.66;;;14.63;50.69
78488;BME280;67885;49.758;9.582;2023-05-02T02:06:14;99265.94;;;14.62;51.13
78488;BME280;67885;49.758;9.582;2023-05-02T02:08:41;99274.22;;;14.69;51.05
78488;BME280;67885;49.758;9.582;2023-05-02T02:11:11;99272.69;;;14.66;51.01
78488;BME280;67885;49.758;9.582;2023-05-02T02:13:44;99272.97;;;14.63;51.07
78488;BME280;67885;49.758;9.582;2023-05-02T02:16:20;99273.22;;;14.70;51.36
78488;BME280;67885;49.758;9.582;2023-05-02T02:18:54;99295.63;;;14.77;50.85
78488;BME280;67885;49.758;9.582;2023-05-02T02:21:24;99292.97;;;14.77;51.11
78488;BME280;67885;49.758;9.582;2023-05-02T02:23:56;99285.59;;;14.71;51.45
78488;BME280;67885;49.758;9.582;2023-05-02T02:26:23;99299.84;;;14.79;51.27
78488;BME280;67885;49.758;9.582;2023-05-02T02:28:50;99293.84;;;14.77;50.50
78488;BME280;67885;49.758;9.582;2023-05-02T02:31:16;99295.63;;;14.77;51.10
78488;BME280;67885;49.758;9.582;2023-05-02T02:33:44;99291.06;;;14.69;51.37
78488;BME280;67885;49.758;9.582;2023-05-02T02:36:14;99294.41;;;14.71;50.98
78488;BME280;67885;49.758;9.582;2023-05-02T02:38:50;99289.38;;;14.68;50.84
78488;BME280;67885;49.758;9.582;2023-05-02T02:41:26;99293.56;;;14.71;51.49
78488;BME280;67885;49.758;9.582;2023-05-02T02:43:59;99295.38;;;14.80;51.53
78488;BME280;67885;49.758;9.582;2023-05-02T02:46:45;99310.03;;;14.94;51.13
78488;BME280;67885;49.758;9.582;2023-05-02T02:49:26;99313.09;;;14.99;50.54
78488;BME280;67885;49.758;9.582;2023-05-02T02:52:04;99312.78;;;15.02;51.71
78488;BME280;67885;49.758;9.582;2023-05-02T02:54:40;99315.84;;;15.07;51.43
78488;BME280;67885;49.758;9.582;2023-05-02T02:57:17;99307.38;;;15.12;51.51
78488;BME280;67885;49.758;9.582;2023-05-02T02:59:57;99313.13;;;15.17;50.81
78488;BME280;67885;49.758;9.582;2023-05-02T03:02:27;99322.41;;;15.13;51.24
78488;BME280;67885;49.758;9.582;2023-05-02T03:05:00;99325.38;;;15.10;51.16
78488;BME280;67885;49.758;9.582;2023-05-02T03:07:28;99332.38;;;15.11;51.93
78488;BME280;67885;49.758;9.582;2023-05-02T03:09:55;99332.09;;;15.14;50.94
78488;BME280;67885;49.758;9.582;2023-05-02T03:12:22;99331.25;;;15.13;51.54
78488;BME280;67885;49.758;9.582;2023-05-02T03:14:49;99340.78;;;15.16;51.86
78488;BME280;67885;49.758;9.582;2023-05-02T03:17:16;99299.34;;;14.94;51.25
78488;BME280;67885;49.758;9.582;2023-05-02T03:19:43;99345.53;;;15.22;51.03
78488;BME280;67885;49.758;9.582;2023-05-02T03:22:10;99298.38;;;14.95;51.44
78488;BME280;67885;49.758;9.582;2023-05-02T03:24:37;99306.22;;;14.96;52.49
78488;BME280;67885;49.758;9.582;2023-05-02T03:27:04;99334.75;;;15.14;51.89
78488;BME280;67885;49.758;9.582;2023-05-02T03:29:31;99298.06;;;14.98;51.72
78488;BME280;67885;49.758;9.582;2023-05-02T03:31:57;99342.88;;;15.22;51.78
78488;BME280;67885;49.758;9.582;2023-05-02T03:34:24;99343.09;;;15.29;51.30
78488;BME280;67885;49.758;9.582;2023-05-02T03:36:50;99332.88;;;15.24;51.67
78488;BME280;67885;49.758;9.582;2023-05-02T03:39:18;99345.31;;;15.33;51.52
78488;BME280;67885;49.758;9.582;2023-05-02T03:41:45;99331.16;;;15.33;51.87
78488;BME280;67885;49.758;9.582;2023-05-02T03:44:12;99342.28;;;15.46;51.28
78488;BME280;67885;49.758;9.582;2023-05-02T03:46:39;99330.91;;;15.44;51.84
78488;BME280;67885;49.758;9.582;2023-05-02T03:49:05;99343.34;;;15.54;51.55
78488;BME280;67885;49.758;9.582;2023-05-02T03:51:32;99348.38;;;15.57;51.31
78488;BME280;67885;49.758;9.582;2023-05-02T03:53:59;99354.59;;;15.57;51.48
78488;BME280;67885;49.758;9.582;2023-05-02T03:56:28;99332.06;;;15.42;51.78
78488;BME280;67885;49.758;9.582;2023-05-02T03:58:54;99365.25;;;15.57;51.73
78488;BME280;67885;49.758;9.582;2023-05-02T04:01:22;99371.13;;;15.61;51.50
78488;BME280;67885;49.758;9.582;2023-05-02T04:03:49;99367.63;;;15.60;51.45
78488;BME280;67885;49.758;9.582;2023-05-02T04:06:15;99293.47;;;14.90;52.01
78488;BME280;67885;49.758;9.582;2023-05-02T04:08:42;99370.28;;;15.60;51.15
78488;BME280;67885;49.758;9.582;2023-05-02T04:11:08;99382.72;;;15.70;50.85
78488;BME280;67885;49.758;9.582;2023-05-02T04:13:36;99383.00;;;15.66;51.24
78488;BME280;67885;49.758;9.582;2023-05-02T04:16:04;99384.03;;;15.65;50.93
78488;BME280;67885;49.758;9.582;2023-05-02T04:18:30;99385.00;;;15.64;50.99
78488;BME280;67885;49.758;9.582;2023-05-02T04:20:57;99390.66;;;15.61;51.27
78488;BME280;67885;49.758;9.582;2023-05-02T04:23:23;99367.97;;;15.47;51.75
78488;BME280;67885;49.758;9.582;2023-05-02T04:25:51;99388.19;;;15.50;50.97
78488;BME280;67885;49.758;9.582;2023-05-02T04:28:19;99402.31;;;15.60;50.58
78488;BME280;67885;49.758;9.582;2023-05-02T04:30:47;99396.75;;;15.54;51.72
78488;BME280;67885;49.758;9.582;2023-05-02T04:33:14;99399.66;;;15.60;51.01
78488;BME280;67885;49.758;9.582;2023-05-02T04:35:41;99414.81;;;15.60;51.43
78488;BME280;67885;49.758;9.582;2023-05-02T04:38:08;99409.56;;;15.68;51.00
78488;BME280;67885;49.758;9.582;2023-05-02T04:40:34;99420.94;;;15.70;51.12
78488;BME280;67885;49.758;9.582;2023-05-02T04:43:01;99436.56;;;15.65;51.48
78488;BME280;67885;49.758;9.582;2023-05-02T04:45:27;99404.69;;;15.63;51.31
78488;BME280;67885;49.758;9.582;2023-05-02T04:47:55;99433.41;;;15.79;50.86
78488;BME280;67885;49.758;9.582;2023-05-02T04:50:22;99424.44;;;15.71;51.64
78488;BME280;67885;49.758;9.582;2023-05-02T04:52:49;99397.56;;;15.54;51.76
78488;BME280;67885;49.758;9.582;2023-05-02T04:55:15;99449.41;;;15.79;51.53
78488;BME280;67885;49.758;9.582;2023-05-02T04:57:42;99459.00;;;15.82;51.75
78488;BME280;67885;49.758;9.582;2023-05-02T05:00:09;99451.38;;;15.77;51.55
78488;BME280;67885;49.758;9.582;2023-05-02T05:02:36;99458.00;;;15.83;51.75
78488;BME280;67885;49.758;9.582;2023-05-02T05:05:05;99463.72;;;15.88;50.63
78488;BME280;67885;49.758;9.582;2023-05-02T05:07:32;99459.16;;;15.80;51.50
78488;BME280;67885;49.758;9.582;2023-05-02T05:09:58;99425.81;;;15.57;51.33
78488;BME280;67885;49.758;9.582;2023-05-02T05:12:25;99472.34;;;15.82;51.19
78488;BME280;67885;49.758;9.582;2023-05-02T05:14:51;99465.44;;;15.79;51.45
78488;BME280;67885;49.758;9.582;2023-05-02T05:17:18;99482.56;;;15.87;51.03
78488;BME280;67885;49.758;9.582;2023-05-02T05:19:45;99484.56;;;15.84;51.91
78488;BME280;67885;49.758;9.582;2023-05-02T05:22:13;99488.53;;;15.80;51.69
78488;BME280;67885;49.758;9.582;2023-05-02T05:24:39;99481.22;;;15.73;51.88
78488;BME280;67885;49.758;9.582;2023-05-02T05:27:06;99484.72;;;15.83;52.06
78488;BME280;67885;49.758;9.582;2023-05-02T05:29:33;99482.72;;;15.85;51.88
78488;BME280;67885;49.758;9.582;2023-05-02T05:31:59;99469.56;;;15.74;52.13
78488;BME280;67885;49.758;9.582;2023-05-02T05:34:26;99489.13;;;15.92;51.86
78488;BME280;67885;49.758;9.582;2023-05-02T05:36:53;99487.59;;;15.90;52.81
78488;BME280;67885;49.758;9.582;2023-05-02T05:39:21;99493.72;;;16.00;52.66
78488;BME280;67885;49.758;9.582;2023-05-02T05:41:49;99486.47;;;15.92;52.44
78488;BME280;67885;49.758;9.582;2023-05-02T05:44:17;99508.16;;;16.07;52.62
78488;BME280;67885;49.758;9.582;2023-05-02T05:46:46;99510.41;;;16.12;51.55
78488;BME280;67885;49.758;9.582;2023-05-02T05:49:14;99512.91;;;16.13;52.05
78488;BME280;67885;49.758;9.582;2023-05-02T05:51:41;99508.00;;;16.09;51.45
78488;BME280;67885;49.758;9.582;2023-05-02T05:54:07;99512.59;;;16.16;51.42
78488;BME280;67885;49.758;9.582;2023-05-02T05:56:35;99525.66;;;16.19;51.91
78488;BME280;67885;49.758;9.582;2023-05-02T05:59:02;99536.22;;;16.21;52.49
78488;BME280;67885;49.758;9.582;2023-05-02T06:01:28;99498.91;;;16.01;52.79
78488;BME280;67885;49.758;9.582;2023-05-02T06:03:55;99534.91;;;16.25;52.53
78488;BME280;67885;49.758;9.582;2023-05-02T06:06:23;99528.19;;;16.21;52.64
78488;BME280;67885;49.758;9.582;2023-05-02T06:08:49;99523.84;;;16.20;52.15
78488;BME280;67885;49.758;9.582;2023-05-02T06:11:16;99523.44;;;16.15;52.85
78488;BME280;67885;49.758;9.582;2023-05-02T06:13:44;99537.75;;;16.24;53.04
78488;BME280;67885;49.758;9.582;2023-05-02T06:16:11;99533.22;;;16.24;52.63
78488;BME280;67885;49.758;9.582;2023-05-02T06:18:37;99555.38;;;16.34;52.26
78488;BME280;67885;49.758;9.582;2023-05-02T06:21:04;99566.91;;;16.35;51.87
78488;BME280;67885;49.758;9.582;2023-05-02T06:23:31;99564.78;;;16.39;52.00
78488;BME280;67885;49.758;9.582;2023-05-02T06:25:59;99574.63;;;16.38;52.07
78488;BME280;67885;49.758;9.582;2023-05-02T06:28:26;99562.72;;;16.32;52.17
78488;BME280;67885;49.758;9.582;2023-05-02T06:30:57;99578.53;;;16.44;52.08
78488;BME280;67885;49.758;9.582;2023-05-02T06:33:25;99572.81;;;16.39;51.46
78488;BME280;67885;49.758;9.582;2023-05-02T06:35:52;99577.53;;;16.45;51.41
78488;BME280;67885;49.758;9.582;2023-05-02T06:38:19;99588.63;;;16.50;51.84
78488;BME280;67885;49.758;9.582;2023-05-02T06:40:46;99579.84;;;16.58;51.46
78488;BME280;67885;49.758;9.582;2023-05-02T06:43:13;99586.25;;;16.65;50.90
78488;BME280;67885;49.758;9.582;2023-05-02T06:45:40;99581.38;;;16.78;51.22
78488;BME280;67885;49.758;9.582;2023-05-02T06:48:09;99485.44;;;16.21;50.79
78488;BME280;67885;49.758;9.582;2023-05-02T06:50:36;99586.78;;;17.05;50.41
78488;BME280;67885;49.758;9.582;2023-05-02T06:53:03;99597.47;;;17.23;50.61
78488;BME280;67885;49.758;9.582;2023-05-02T06:55:30;99585.16;;;17.30;49.52
78488;BME280;67885;49.758;9.582;2023-05-02T06:57:58;99596.28;;;17.43;49.55
78488;BME280;67885;49.758;9.582;2023-05-02T07:00:24;99602.41;;;17.62;48.92
78488;BME280;67885;49.758;9.582;2023-05-02T07:02:51;99596.25;;;17.69;49.52
78488;BME280;67885;49.758;9.582;2023-05-02T07:05:19;99594.16;;;17.81;49.25
78488;BME280;67885;49.758;9.582;2023-05-02T07:07:46;99608.66;;;18.05;49.19
78488;BME280;67885;49.758;9.582;2023-05-02T07:10:12;99617.94;;;18.19;48.64
78488;BME280;67885;49.758;9.582;2023-05-02T07:12:39;99619.34;;;18.31;49.09
78488;BME280;67885;49.758;9.582;2023-05-02T07:15:06;99611.66;;;18.45;47.34
78488;BME280;67885;49.758;9.582;2023-05-02T07:17:33;99610.00;;;18.52;48.01
78488;BME280;67885;49.758;9.582;2023-05-02T07:20:00;99600.28;;;18.51;46.89
78488;BME280;67885;49.758;9.582;2023-05-02T07:22:28;99607.84;;;18.64;46.48
78488;BME280;67885;49.758;9.582;2023-05-02T07:24:59;99602.63;;;18.70;46.54
78488;BME280;67885;49.758;9.582;2023-05-02T07:27:26;99594.94;;;18.67;46.33
78488;BME280;67885;49.758;9.582;2023-05-02T07:29:52;99615.75;;;18.82;46.69
78488;BME280;67885;49.758;9.582;2023-05-02T07:32:20;99567.09;;;18.68;46.45
78488;BME280;67885;49.758;9.582;2023-05-02T07:34:47;99614.44;;;19.02;45.74
78488;BME280;67885;49.758;9.582;2023-05-02T07:37:13;99613.09;;;19.15;46.96
78488;BME280;67885;49.758;9.582;2023-05-02T07:39:41;99612.78;;;19.26;46.22
78488;BME280;67885;49.758;9.582;2023-05-02T07:42:08;99613.59;;;19.35;45.50
78488;BME280;67885;49.758;9.582;2023-05-02T07:44:34;99609.03;;;19.44;44.68
78488;BME280;67885;49.758;9.582;2023-05-02T07:47:01;99619.28;;;19.57;45.56
78488;BME280;67885;49.758;9.582;2023-05-02T07:49:28;99603.97;;;19.57;45.24
78488;BME280;67885;49.758;9.582;2023-05-02T07:51:55;99612.00;;;19.65;45.10
78488;BME280;67885;49.758;9.582;2023-05-02T07:54:22;99616.88;;;19.70;44.98
78488;BME280;67885;49.758;9.582;2023-05-02T07:56:51;99606.97;;;19.70;44.87
78488;BME280;67885;49.758;9.582;2023-05-02T07:59:19;99614.69;;;19.74;44.38
78488;BME280;67885;49.758;9.582;2023-05-02T08:01:45;99621.75;;;19.75;44.16
78488;BME280;67885;49.758;9.582;2023-05-02T08:04:12;99617.69;;;19.79;43.05
78488;BME280;67885;49.758;9.582;2023-05-02T08:06:39;99622.06;;;19.88;43.70
78488;BME280;67885;49.758;9.582;2023-05-02T08:09:05;99620.00;;;20.07;43.90
78488;BME280;67885;49.758;9.582;2023-05-02T08:11:33;99621.78;;;20.23;44.58
78488;BME280;67885;49.758;9.582;2023-05-02T08:14:01;99609.34;;;20.21;42.83
78488;BME280;67885;49.758;9.582;2023-05-02T08:16:28;99624.94;;;20.58;43.27
78488;BME280;67885;49.758;9.582;2023-05-02T08:18:54;99631.75;;;20.77;43.32
78488;BME280;67885;49.758;9.582;2023-05-02T08:21:22;99628.09;;;20.93;41.47
78488;BME280;67885;49.758;9.582;2023-05-02T08:23:48;99625.28;;;21.09;41.47
78488;BME280;67885;49.758;9.582;2023-05-02T08:26:15;99587.75;;;21.08;40.95
78488;BME280;67885;49.758;9.582;2023-05-02T08:28:43;99616.72;;;21.44;42.04
78488;BME280;67885;49.758;9.582;2023-05-02T08:31:11;99619.84;;;21.55;39.85
78488;BME280;67885;49.758;9.582;2023-05-02T08:33:38;99632.09;;;21.58;40.46
78488;BME280;67885;49.758;9.582;2023-05-02T08:36:09;99628.94;;;21.54;39.26
78488;BME280;67885;49.758;9.582;2023-05-02T08:38:36;99632.81;;;21.52;38.67
78488;BME280;67885;49.758;9.582;2023-05-02T08:41:09;99600.25;;;21.23;39.96
78488;BME280;67885;49.758;9.582;2023-05-02T08:43:36;99622.81;;;21.22;38.68
78488;BME280;67885;49.758;9.582;2023-05-02T08:46:04;99630.59;;;21.17;39.26
78488;BME280;67885;49.758;9.582;2023-05-02T08:48:34;99632.81;;;21.14;39.85
78488;BME280;67885;49.758;9.582;2023-05-02T08:51:02;99644.50;;;21.06;40.31
78488;BME280;67885;49.758;9.582;2023-05-02T08:53:32;99638.34;;;20.97;39.34
78488;BME280;67885;49.758;9.582;2023-05-02T08:55:59;99635.47;;;20.99;39.86
78488;BME280;67885;49.758;9.582;2023-05-02T08:58:26;99648.44;;;20.95;40.30
78488;BME280;67885;49.758;9.582;2023-05-02T09:00:55;99654.91;;;20.86;40.11
78488;BME280;67885;49.758;9.582;2023-05-02T09:03:28;99654.81;;;20.71;41.04
78488;BME280;67885;49.758;9.582;2023-05-02T09:06:04;99651.16;;;20.64;41.07
78488;BME280;67885;49.758;9.582;2023-05-02T09:08:31;99669.28;;;20.70;41.48
78488;BME280;67885;49.758;9.582;2023-05-02T09:10:58;99667.63;;;20.69;40.68
78488;BME280;67885;49.758;9.582;2023-05-02T09:13:33;99685.31;;;20.63;40.15
78488;BME280;67885;49.758;9.582;2023-05-02T09:16:02;99635.47;;;20.36;40.74
78488;BME280;67885;49.758;9.582;2023-05-02T09:18:31;99676.41;;;20.54;40.62
78488;BME280;67885;49.758;9.582;2023-05-02T09:21:03;99672.28;;;20.44;41.68
78488;BME280;67885;49.758;9.582;2023-05-02T09:23:35;99663.59;;;20.33;42.71
78488;BME280;67885;49.758;9.582;2023-05-02T09:26:15;99679.69;;;20.42;40.71
78488;BME280;67885;49.758;9.582;2023-05-02T09:28:43;99668.63;;;20.36;41.39
78488;BME280;67885;49.758;9.582;2023-05-02T09:31:12;99684.72;;;20.45;41.02
78488;BME280;67885;49.758;9.582;2023-05-02T09:33:39;99686.91;;;20.41;40.91
78488;BME280;67885;49.758;9.582;2023-05-02T09:36:10;99685.91;;;20.42;41.94
78488;BME280;67885;49.758;9.582;2023-05-02T09:38:38;99640.28;;;20.17;40.53
78488;BME280;67885;49.758;9.582;2023-05-02T09:41:05;99593.84;;;19.92;40.66
78488;BME280;67885;49.758;9.582;2023-05-02T09:43:31;99693.06;;;20.58;39.32
78488;BME280;67885;49.758;9.582;2023-05-02T09:45:59;99707.16;;;20.60;39.78
78488;BME280;67885;49.758;9.582;2023-05-02T09:48:28;99700.19;;;20.43;39.34
78488;BME280;67885;49.758;9.582;2023-05-02T09:50:56;99667.44;;;20.39;39.10
78488;BME280;67885;49.758;9.582;2023-05-02T09:53:26;99667.44;;;20.39;39.31
78488;BME280;67885;49.758;9.582;2023-05-02T09:56:00;99694.44;;;20.54;39.25
78488;BME280;67885;49.758;9.582;2023-05-02T09:58:27;99706.69;;;20.57;40.13
78488;BME280;67885;49.758;9.582;2023-05-02T10:00:56;99712.59;;;20.52;40.52
78488;BME280;67885;49.758;9.582;2023-05-02T10:03:24;99706.75;;;20.48;39.50
78488;BME280;67885;49.758;9.582;2023-05-02T10:05:52;99695.88;;;20.33;39.44
78488;BME280;67885;49.758;9.582;2023-05-02T10:08:20;99713.81;;;20.41;40.38
78488;BME280;67885;49.758;9.582;2023-05-02T10:10:52;99657.97;;;20.03;40.34
78488;BME280;67885;49.758;9.582;2023-05-02T10:13:21;99703.25;;;20.31;40.38
78488;BME280;67885;49.758;9.582;2023-05-02T10:15:54;99729.81;;;20.34;40.82
78488;BME280;67885;49.758;9.582;2023-05-02T10:18:27;99720.22;;;20.32;40.81
78488;BME280;67885;49.758;9.582;2023-05-02T10:20:58;99710.69;;;20.21;40.74
78488;BME280;67885;49.758;9.582;2023-05-02T10:23:27;99714.56;;;20.27;40.92
78488;BME280;67885;49.758;9.582;2023-05-02T10:25:57;99684.34;;;20.08;42.12
78488;BME280;67885;49.758;9.582;2023-05-02T10:28:25;99703.22;;;20.39;42.65
78488;BME280;67885;49.758;9.582;2023-05-02T10:30:53;99708.72;;;20.54;41.63
78488;BME280;67885;49.758;9.582;2023-05-02T10:33:21;99707.66;;;20.72;41.83
78488;BME280;67885;49.758;9.582;2023-05-02T10:35:48;99704.09;;;20.80;41.37
78488;BME280;67885;49.758;9.582;2023-05-02T10:38:18;99714.63;;;20.89;41.04
78488;BME280;67885;49.758;9.582;2023-05-02T10:40:53;99692.06;;;20.91;39.54
78488;BME280;67885;49.758;9.582;2023-05-02T10:43:29;99690.81;;;21.01;39.12
78488;BME280;67885;49.758;9.582;2023-05-02T10:45:57;99698.28;;;21.14;38.96
78488;BME280;67885;49.758;9.582;2023-05-02T10:48:25;99698.41;;;21.21;38.96
78488;BME280;67885;49.758;9.582;2023-05-02T10:50:54;99682.63;;;21.18;39.17
78488;BME280;67885;49.758;9.582;2023-05-02T10:53:25;99682.75;;;21.25;39.14
78488;BME280;67885;49.758;9.582;2023-05-02T10:56:10;99645.56;;;21.20;39.15
78488;BME280;67885;49.758;9.582;2023-05-02T10:58:39;99678.03;;;21.42;38.92
78488;BME280;67885;49.758;9.582;2023-05-02T11:01:34;99686.31;;;21.63;39.01
78488;BME280;67885;49.758;9.582;2023-05-02T11:04:06;99706.97;;;21.71;38.08
78488;BME280;67885;49.758;9.582;2023-05-02T11:06:34;99686.31;;;21.78;36.86
78488;BME280;67885;49.758;9.582;2023-05-02T11:09:30;99687.09;;;21.87;37.47
78488;BME280;67885;49.758;9.582;2023-05-02T11:11:59;99694.63;;;21.92;37.95
78488;BME280;67885;49.758;9.582;2023-05-02T11:14:44;99682.63;;;21.94;36.98
78488;BME280;67885;49.758;9.582;2023-05-02T11:17:14;99682.72;;;22.01;35.98
78488;BME280;67885;49.758;9.582;2023-05-02T11:22:51;99659.16;;;21.80;37.12
78488;BME280;67885;49.758;9.582;2023-05-02T11:25:36;99683.94;;;21.98;35.75
78488;BME280;67885;49.758;9.582;2023-05-02T11:28:05;99662.16;;;22.00;34.47
78488;BME280;67885;49.758;9.582;2023-05-02T11:30:44;99689.88;;;22.23;36.00
78488;BME280;67885;49.758;9.582;2023-05-02T11:33:17;99682.72;;;22.31;36.46
78488;BME280;67885;49.758;9.582;2023-05-02T11:35:46;99687.03;;;22.40;35.68
78488;BME280;67885;49.758;9.582;2023-05-02T11:38:19;99685.63;;;22.44;34.66
78488;BME280;67885;49.758;9.582;2023-05-02T11:40:55;99687.53;;;22.50;35.60
78488;BME280;67885;49.758;9.582;2023-05-02T11:43:24;99680.38;;;22.58;34.81
78488;BME280;67885;49.758;9.582;2023-05-02T11:45:53;99665.88;;;22.59;35.51
78488;BME280;67885;49.758;9.582;2023-05-02T11:48:23;99640.13;;;22.41;35.03
78488;BME280;67885;49.758;9.582;2023-05-02T11:50:54;99674.16;;;22.79;34.87
78488;BME280;67885;49.758;9.582;2023-05-02T11:53:22;99673.41;;;22.85;34.20
78488;BME280;67885;49.758;9.582;2023-05-02T11:55:51;99660.66;;;22.79;35.06
78488;BME280;67885;49.758;9.582;2023-05-02T11:58:19;99670.97;;;22.90;33.66
78488;BME280;67885;49.758;9.582;2023-05-02T12:00:48;99650.13;;;22.84;33.35
78488;BME280;67885;49.758;9.582;2023-05-02T12:03:29;99674.72;;;22.89;32.92
78488;BME280;67885;49.758;9.582;2023-05-02T12:05:57;99641.00;;;22.63;34.12
78488;BME280;67885;49.758;9.582;2023-05-02T12:08:25;99658.56;;;22.74;34.20
78488;BME280;67885;49.758;9.582;2023-05-02T12:10:54;99667.56;;;22.81;33.55
78488;BME280;67885;49.758;9.582;2023-05-02T12:13:23;99679.72;;;22.92;33.49
78488;BME280;67885;49.758;9.582;2023-05-02T12:15:52;99677.75;;;23.01;32.64
78488;BME280;67885;49.758;9.582;2023-05-02T12:18:21;99681.34;;;23.08;34.68
78488;BME280;67885;49.758;9.582;2023-05-02T12:20:51;99664.03;;;23.02;32.65
78488;BME280;67885;49.758;9.582;2023-05-02T12:23:19;99688.03;;;23.12;34.20
78488;BME280;67885;49.758;9.582;2023-05-02T12:25:47;99671.19;;;23.10;35.35
78488;BME280;67885;49.758;9.582;2023-05-02T12:28:16;99644.59;;;22.92;32.59
78488;BME280;67885;49.758;9.582;2023-05-02T12:30:46;99666.72;;;23.17;34.90
78488;BME280;67885;49.758;9.582;2023-05-02T12:33:13;99686.78;;;23.30;33.08
78488;BME280;67885;49.758;9.582;2023-05-02T12:35:41;99685.34;;;23.34;31.56
78488;BME280;67885;49.758;9.582;2023-05-02T12:38:14;99690.34;;;23.37;31.73
78488;BME280;67885;49.758;9.582;2023-05-02T12:40:51;99603.59;;;22.82;33.46
78488;BME280;67885;49.758;9.582;2023-05-02T12:43:19;99643.13;;;23.11;32.46
78488;BME280;67885;49.758;9.582;2023-05-02T12:45:46;99683.09;;;23.37;32.89
78488;BME280;67885;49.758;9.582;2023-05-02T12:48:23;99670.50;;;23.23;33.23
78488;BME280;67885;49.758;9.582;2023-05-02T12:50:50;99691.59;;;23.34;32.63
78488;BME280;67885;49.758;9.582;2023-05-02T12:53:37;99682.06;;;23.38;32.56
78488;BME280;67885;49.758;9.582;2023-05-02T12:56:05;99688.94;;;23.41;33.43
78488;BME280;67885;49.758;9.582;2023-05-02T12:58:40;99684.38;;;23.42;32.61
78488;BME280;67885;49.758;9.582;2023-05-02T13:01:07;99671.91;;;23.40;34.10
78488;BME280;67885;49.758;9.582;2023-05-02T13:03:34;99674.84;;;23.46;32.21
78488;BME280;67885;49.758;9.582;2023-05-02T13:06:01;99685.53;;;23.54;31.94
78488;BME280;67885;49.758;9.582;2023-05-02T13:08:28;99681.97;;;23.53;32.12
78488;BME280;67885;49.758;9.582;2023-05-02T13:10:56;99641.78;;;23.22;31.91
78488;BME280;67885;49.758;9.582;2023-05-02T13:13:23;99684.44;;;23.48;31.23